createdAt,value
2023-05-14T00:01:13.303Z,15.80
2023-05-14T00:03:41.367Z,15.80
2023-05-14T00:06:09.157Z,15.80
2023-05-14T00:08:35.864Z,15.80
2023-05-14T00:11:03.351Z,15.80
2023-05-14T00:13:30.173Z,15.70
2023-05-14T00:15:56.953Z,15.70
2023-05-14T00:18:23.738Z,15.70
2023-05-14T00:20:54.990Z,15.70
2023-05-14T00:23:25.093Z,15.70
2023-05-14T00:25:51.907Z,15.70
2023-05-14T00:28:18.649Z,15.60
2023-05-14T00:30:45.420Z,15.60
2023-05-14T00:33:12.438Z,15.60
2023-05-14T00:35:39.494Z,15.60
2023-05-14T00:38:06.268Z,15.60
2023-05-14T00:40:33.392Z,15.50
2023-05-14T00:43:00.295Z,15.50
2023-05-14T00:45:27.324Z,15.50
2023-05-14T00:47:54.907Z,15.50
2023-05-14T00:50:22.407Z,15.50
2023-05-14T00:52:49.899Z,15.40
2023-05-14T00:55:16.830Z,15.40
2023-05-14T00:57:44.012Z,15.40
2023-05-14T01:00:11.347Z,15.40
2023-05-14T01:02:38.307Z,15.40
2023-05-14T01:05:05.990Z,15.30
2023-05-14T01:07:51.610Z,15.40
2023-05-14T01:10:35.554Z,15.30
2023-05-14T01:13:23.817Z,15.30
2023-05-14T01:15:51.236Z,15.30
2023-05-14T01:18:19.800Z,15.30
2023-05-14T01:20:46.922Z,15.30
2023-05-14T01:23:13.882Z,15.30
2023-05-14T01:25:41.128Z,15.20
2023-05-14T01:28:23.536Z,15.20
2023-05-14T01:31:16.426Z,15.20
2023-05-14T01:33:44.850Z,15.20
2023-05-14T01:36:11.922Z,15.20
2023-05-14T01:38:40.015Z,15.20
2023-05-14T01:41:06.899Z,15.10
2023-05-14T01:43:35.741Z,15.10
2023-05-14T01:46:02.883Z,15.10
2023-05-14T01:48:30.432Z,15.10
2023-05-14T01:50:57.208Z,15.10
2023-05-14T01:53:23.898Z,15.10
2023-05-14T01:55:50.753Z,15.00
2023-05-14T01:58:17.538Z,15.00
2023-05-14T02:00:44.482Z,15.00
2023-05-14T02:03:11.315Z,15.00
2023-05-14T02:05:38.034Z,15.00
2023-05-14T02:08:04.990Z,15.00
2023-05-14T02:10:31.685Z,15.00
2023-05-14T02:12:58.368Z,14.90
2023-05-14T02:15:25.060Z,14.90
2023-05-14T02:17:51.917Z,14.90
2023-05-14T02:20:18.750Z,14.90
2023-05-14T02:22:48.492Z,14.90
2023-05-14T02:25:15.132Z,14.90
2023-05-14T02:27:41.976Z,14.90
2023-05-14T02:30:09.544Z,14.80
2023-05-14T02:32:36.701Z,14.80
2023-05-14T02:35:05.123Z,14.80
2023-05-14T02:37:31.816Z,14.80
2023-05-14T02:39:58.776Z,14.80
2023-05-14T02:42:25.796Z,14.80
2023-05-14T02:44:52.705Z,14.70
2023-05-14T02:47:19.518Z,14.70
2023-05-14T02:49:46.343Z,14.70
2023-05-14T02:52:12.984Z,14.70
2023-05-14T02:54:39.673Z,14.70
2023-05-14T02:57:06.440Z,14.70
2023-05-14T02:59:33.103Z,14.70
2023-05-14T03:02:00.355Z,14.70
2023-05-14T03:04:27.525Z,14.70
2023-05-14T03:06:54.593Z,14.70
2023-05-14T03:09:21.271Z,14.60
2023-05-14T03:11:48.012Z,14.60
2023-05-14T03:14:15.035Z,14.60
2023-05-14T03:16:42.485Z,14.60
2023-05-14T03:19:10.132Z,14.60
2023-05-14T03:21:37.148Z,14.50
2023-05-14T03:24:03.928Z,14.50
2023-05-14T03:26:30.610Z,14.50
2023-05-14T03:28:57.288Z,14.50
2023-05-14T03:31:24.055Z,14.50
2023-05-14T03:33:51.131Z,14.50
2023-05-14T03:36:17.844Z,14.50
2023-05-14T03:38:44.461Z,14.50
2023-05-14T03:41:11.113Z,14.50
2023-05-14T03:43:37.763Z,14.40
2023-05-14T03:46:04.450Z,14.40
2023-05-14T03:48:31.152Z,14.40
2023-05-14T03:50:57.905Z,14.40
2023-05-14T03:53:24.758Z,14.40
2023-05-14T03:55:51.524Z,14.40
2023-05-14T03:58:18.334Z,14.40
2023-05-14T04:00:45.133Z,14.40
2023-05-14T04:03:12.287Z,14.30
2023-05-14T04:05:39.100Z,14.30
2023-05-14T04:08:06.127Z,14.30
2023-05-14T04:10:32.879Z,14.30
2023-05-14T04:12:59.562Z,14.30
2023-05-14T04:15:26.376Z,14.30
2023-05-14T04:17:53.202Z,14.30
2023-05-14T04:20:20.222Z,14.30
2023-05-14T04:22:47.099Z,14.20
2023-05-14T04:25:13.872Z,14.30
2023-05-14T04:27:40.706Z,14.20
2023-05-14T04:30:08.609Z,14.20
2023-05-14T04:32:35.630Z,14.20
2023-05-14T04:35:04.230Z,14.20
2023-05-14T04:37:31.803Z,14.20
2023-05-14T04:39:58.691Z,14.20
2023-05-14T04:42:25.687Z,14.20
2023-05-14T04:44:52.482Z,14.20
2023-05-14T04:47:19.951Z,14.20
2023-05-14T04:49:46.900Z,14.20
2023-05-14T04:52:14.041Z,14.20
2023-05-14T04:54:40.801Z,14.20
2023-05-14T04:57:07.649Z,14.20
2023-05-14T04:59:34.478Z,14.20
2023-05-14T05:02:01.267Z,14.20
2023-05-14T05:04:28.076Z,14.20
2023-05-14T05:06:54.755Z,14.20
2023-05-14T05:09:21.386Z,14.20
2023-05-14T05:11:48.080Z,14.20
2023-05-14T05:14:14.848Z,14.20
2023-05-14T05:16:41.570Z,14.20
2023-05-14T05:19:08.476Z,14.20
2023-05-14T05:21:35.618Z,14.20
2023-05-14T05:24:02.423Z,14.20
2023-05-14T05:26:29.090Z,14.20
2023-05-14T05:28:55.928Z,14.20
2023-05-14T05:31:22.839Z,14.20
2023-05-14T05:33:49.702Z,14.20
2023-05-14T05:36:16.709Z,14.20
2023-05-14T05:38:43.472Z,14.20
2023-05-14T05:41:10.392Z,14.20
2023-05-14T05:43:37.142Z,14.20
2023-05-14T05:46:03.772Z,14.20
2023-05-14T05:48:30.520Z,14.20
2023-05-14T05:50:58.687Z,14.20
2023-05-14T05:53:25.450Z,14.20
2023-05-14T05:55:52.156Z,14.20
2023-05-14T05:58:19.897Z,14.30
2023-05-14T06:00:47.326Z,14.20
2023-05-14T06:03:14.173Z,14.30
2023-05-14T06:05:41.073Z,14.30
2023-05-14T06:08:07.917Z,14.30
2023-05-14T06:10:35.107Z,14.30
2023-05-14T06:13:01.943Z,14.30
2023-05-14T06:15:28.690Z,14.30
2023-05-14T06:17:55.512Z,14.30
2023-05-14T06:20:22.393Z,14.30
2023-05-14T06:22:49.384Z,14.30
2023-05-14T06:25:16.127Z,14.30
2023-05-14T06:27:42.945Z,14.30
2023-05-14T06:30:11.217Z,14.30
2023-05-14T06:32:38.236Z,14.30
2023-05-14T06:35:05.469Z,14.40
2023-05-14T06:37:32.181Z,14.30
2023-05-14T06:39:58.811Z,14.40
2023-05-14T06:42:26.485Z,14.40
2023-05-14T06:44:53.168Z,14.40
2023-05-14T06:47:19.920Z,14.40
2023-05-14T06:49:46.620Z,14.40
2023-05-14T06:52:13.216Z,14.40
2023-05-14T06:54:39.909Z,14.40
2023-05-14T06:57:06.710Z,14.40
2023-05-14T06:59:33.386Z,14.40
2023-05-14T07:02:00.262Z,14.40
2023-05-14T07:04:27.099Z,14.40
2023-05-14T07:06:53.944Z,14.40
2023-05-14T07:09:20.986Z,14.50
2023-05-14T07:11:47.775Z,14.50
2023-05-14T07:14:14.528Z,14.50
2023-05-14T07:16:41.713Z,14.50
2023-05-14T07:19:08.555Z,14.50
2023-05-14T07:21:36.337Z,14.50
2023-05-14T07:24:03.010Z,14.60
2023-05-14T07:26:29.720Z,14.60
2023-05-14T07:28:56.355Z,14.60
2023-05-14T07:31:23.120Z,14.60
2023-05-14T07:33:50.085Z,14.70
2023-05-14T07:36:16.754Z,14.70
2023-05-14T07:38:43.497Z,14.70
2023-05-14T07:41:11.602Z,14.70
2023-05-14T07:43:38.965Z,14.70
2023-05-14T07:46:05.689Z,14.70
2023-05-14T07:48:32.687Z,14.80
2023-05-14T07:51:00.062Z,14.80
2023-05-14T07:53:26.901Z,14.80
2023-05-14T07:55:54.714Z,14.80
2023-05-14T07:58:21.420Z,14.90
2023-05-14T08:00:48.040Z,14.90
2023-05-14T08:03:15.146Z,14.90
2023-05-14T08:05:41.892Z,14.90
2023-05-14T08:08:08.644Z,15.00
2023-05-14T08:10:35.536Z,15.00
2023-05-14T08:13:02.362Z,15.00
2023-05-14T08:15:29.468Z,15.00
2023-05-14T08:17:56.530Z,15.00
2023-05-14T08:20:24.311Z,15.10
2023-05-14T08:22:51.247Z,15.10
2023-05-14T08:25:17.980Z,15.10
2023-05-14T08:27:44.731Z,15.20
2023-05-14T08:30:12.041Z,15.00
2023-05-14T08:32:39.700Z,15.10
2023-05-14T08:35:07.305Z,15.20
2023-05-14T08:37:34.203Z,15.20
2023-05-14T08:40:00.956Z,15.30
2023-05-14T08:42:29.236Z,15.30
2023-05-14T08:45:03.681Z,15.30
2023-05-14T08:47:31.177Z,15.30
2023-05-14T08:50:04.720Z,15.40
2023-05-14T08:52:31.774Z,15.40
2023-05-14T08:55:04.693Z,15.40
2023-05-14T08:57:32.962Z,15.50
2023-05-14T09:00:00.065Z,15.50
2023-05-14T09:02:31.509Z,15.50
2023-05-14T09:04:59.897Z,15.50
2023-05-14T09:07:27.275Z,15.60
2023-05-14T09:09:55.010Z,15.60
2023-05-14T09:12:22.480Z,15.60
2023-05-14T09:14:50.661Z,15.70
2023-05-14T09:17:18.096Z,15.70
2023-05-14T09:19:49.730Z,15.70
2023-05-14T09:22:18.238Z,15.80
2023-05-14T09:24:45.878Z,15.80
2023-05-14T09:27:22.559Z,15.80
2023-05-14T09:29:49.324Z,15.90
2023-05-14T09:32:16.410Z,16.00
2023-05-14T09:34:42.978Z,16.00
2023-05-14T09:37:10.281Z,16.10
2023-05-14T09:39:37.991Z,16.10
2023-05-14T09:42:05.311Z,16.10
2023-05-14T09:44:32.146Z,16.20
2023-05-14T09:46:59.028Z,16.30
2023-05-14T09:49:26.043Z,16.40
2023-05-14T09:51:52.812Z,16.50
2023-05-14T09:54:19.558Z,16.60
2023-05-14T09:56:46.425Z,16.70
2023-05-14T09:59:13.461Z,16.70
2023-05-14T10:01:43.244Z,16.70
2023-05-14T10:04:11.285Z,16.90
2023-05-14T10:06:39.775Z,17.00
2023-05-14T10:09:13.366Z,17.00
2023-05-14T10:11:44.144Z,17.20
2023-05-14T10:14:22.026Z,17.30
2023-05-14T10:16:51.512Z,17.40
2023-05-14T10:19:21.233Z,17.50
2023-05-14T10:21:56.187Z,17.60
2023-05-14T10:24:24.410Z,17.60
2023-05-14T10:26:51.729Z,17.80
2023-05-14T10:29:18.443Z,17.80
2023-05-14T10:31:55.581Z,18.00
2023-05-14T10:34:32.545Z,18.20
2023-05-14T10:37:03.369Z,18.30
2023-05-14T10:39:44.622Z,18.40
2023-05-14T10:42:13.474Z,18.50
2023-05-14T10:44:47.207Z,18.70
2023-05-14T10:47:15.440Z,18.80
2023-05-14T10:49:44.010Z,18.90
2023-05-14T10:52:12.083Z,19.10
2023-05-14T10:54:39.125Z,19.10
2023-05-14T10:57:11.478Z,19.50
2023-05-14T10:59:42.045Z,19.60
2023-05-14T11:02:20.432Z,19.60
2023-05-14T11:04:55.136Z,19.70
2023-05-14T11:07:27.350Z,19.90
2023-05-14T11:09:57.147Z,20.00
2023-05-14T11:12:23.783Z,20.10
2023-05-14T11:14:50.935Z,20.20
2023-05-14T11:17:18.432Z,20.30
2023-05-14T11:19:45.997Z,20.40
2023-05-14T11:22:14.600Z,20.50
2023-05-14T11:24:41.511Z,20.60
2023-05-14T11:27:11.913Z,20.70
2023-05-14T11:29:38.949Z,20.70
2023-05-14T11:32:06.749Z,20.80
2023-05-14T11:34:34.833Z,20.80
2023-05-14T11:37:05.819Z,21.00
2023-05-14T11:39:33.324Z,21.10
2023-05-14T11:42:02.878Z,21.20
2023-05-14T11:44:29.836Z,21.30
2023-05-14T11:47:01.416Z,21.20
2023-05-14T11:49:31.984Z,21.40
2023-05-14T11:52:00.276Z,21.50
2023-05-14T11:54:30.654Z,21.50
2023-05-14T11:56:58.674Z,21.70
2023-05-14T11:59:31.728Z,21.70
2023-05-14T12:01:59.465Z,21.90
2023-05-14T12:04:26.243Z,21.90
2023-05-14T12:06:53.373Z,21.90
2023-05-14T12:09:21.135Z,22.10
2023-05-14T12:11:49.036Z,22.10
2023-05-14T12:14:21.283Z,22.20
2023-05-14T12:16:48.566Z,22.40
2023-05-14T12:19:16.916Z,22.30
2023-05-14T12:21:45.214Z,22.40
2023-05-14T12:24:17.494Z,22.60
2023-05-14T12:26:48.557Z,22.70
2023-05-14T12:29:16.420Z,22.50
2023-05-14T12:31:50.288Z,22.40
2023-05-14T12:34:17.574Z,22.50
2023-05-14T12:36:44.594Z,22.40
2023-05-14T12:39:12.271Z,22.60
2023-05-14T12:41:39.195Z,22.80
2023-05-14T12:44:06.457Z,22.90
2023-05-14T12:46:34.265Z,22.80
2023-05-14T12:49:01.260Z,23.00
2023-05-14T12:51:28.180Z,22.90
2023-05-14T12:53:55.042Z,22.80
2023-05-14T12:56:27.887Z,23.00
2023-05-14T12:58:57.957Z,22.70
2023-05-14T13:01:24.894Z,23.10
2023-05-14T13:03:51.954Z,22.90
2023-05-14T13:06:18.660Z,23.10
2023-05-14T13:08:46.153Z,23.00
2023-05-14T13:11:12.790Z,23.10
2023-05-14T13:13:39.471Z,23.00
2023-05-14T13:16:06.468Z,23.00
2023-05-14T13:18:33.244Z,23.10
2023-05-14T13:21:00.147Z,23.00
2023-05-14T13:23:26.849Z,23.20
2023-05-14T13:25:53.581Z,23.20
2023-05-14T13:28:20.242Z,23.10
2023-05-14T13:31:07.243Z,23.00
2023-05-14T13:33:38.668Z,22.90
2023-05-14T13:36:05.879Z,23.10
2023-05-14T13:38:32.652Z,23.10
2023-05-14T13:41:02.574Z,23.10
2023-05-14T13:43:30.903Z,23.00
2023-05-14T13:45:58.166Z,23.10
2023-05-14T13:48:25.771Z,23.10
2023-05-14T13:50:52.551Z,22.90
2023-05-14T13:53:20.423Z,22.90
2023-05-14T13:55:49.019Z,22.90
2023-05-14T13:58:16.646Z,22.90
2023-05-14T14:00:43.376Z,22.70
2023-05-14T14:03:10.188Z,22.90
2023-05-14T14:05:37.061Z,22.90
2023-05-14T14:08:13.160Z,23.00
2023-05-14T14:10:49.271Z,23.00
2023-05-14T14:13:16.014Z,23.10
2023-05-14T14:15:43.749Z,23.00
2023-05-14T14:18:10.607Z,22.80
2023-05-14T14:20:37.455Z,22.20
2023-05-14T14:23:04.360Z,22.30
2023-05-14T14:25:31.067Z,22.60
2023-05-14T14:27:57.790Z,22.80
2023-05-14T14:30:24.474Z,22.90
2023-05-14T14:32:51.241Z,22.90
2023-05-14T14:35:19.173Z,23.00
2023-05-14T14:37:52.263Z,22.90
2023-05-14T14:40:19.394Z,23.00
2023-05-14T14:42:46.043Z,22.90
2023-05-14T14:45:13.116Z,23.00
2023-05-14T14:47:44.692Z,23.00
2023-05-14T14:50:12.509Z,23.10
2023-05-14T14:52:40.390Z,23.10
2023-05-14T14:55:07.277Z,23.10
2023-05-14T14:57:34.066Z,23.10
2023-05-14T15:00:02.343Z,23.10
2023-05-14T15:02:29.597Z,23.20
2023-05-14T15:04:56.418Z,23.20
2023-05-14T15:07:23.218Z,23.20
2023-05-14T15:09:50.057Z,23.20
2023-05-14T15:12:17.250Z,23.30
2023-05-14T15:14:43.929Z,23.30
2023-05-14T15:17:10.890Z,23.30
2023-05-14T15:19:37.636Z,23.30
2023-05-14T15:22:05.201Z,23.40
2023-05-14T15:24:31.816Z,23.40
2023-05-14T15:26:58.473Z,23.30
2023-05-14T15:29:25.232Z,23.30
2023-05-14T15:31:51.893Z,23.30
2023-05-14T15:34:18.688Z,23.20
2023-05-14T15:36:45.403Z,23.20
2023-05-14T15:39:13.034Z,23.20
2023-05-14T15:41:39.843Z,23.10
2023-05-14T15:44:06.791Z,23.10
2023-05-14T15:46:33.599Z,23.10
2023-05-14T15:49:00.308Z,23.20
2023-05-14T15:51:27.030Z,23.20
2023-05-14T15:53:54.339Z,23.10
2023-05-14T15:56:23.036Z,23.10
2023-05-14T15:58:49.999Z,23.00
2023-05-14T16:01:17.119Z,23.00
2023-05-14T16:03:43.975Z,23.00
2023-05-14T16:06:11.723Z,22.90
2023-05-14T16:08:38.789Z,22.90
2023-05-14T16:11:06.554Z,22.90
2023-05-14T16:13:33.979Z,22.80
2023-05-14T16:16:01.526Z,22.80
2023-05-14T16:18:28.322Z,22.80
2023-05-14T16:20:55.767Z,22.70
2023-05-14T16:23:22.486Z,22.70
2023-05-14T16:25:49.425Z,22.70
2023-05-14T16:28:16.356Z,22.70
2023-05-14T16:30:43.057Z,22.60
2023-05-14T16:33:09.913Z,22.60
2023-05-14T16:35:36.755Z,22.60
2023-05-14T16:38:03.504Z,22.60
2023-05-14T16:40:30.334Z,22.50
2023-05-14T16:42:57.036Z,22.50
2023-05-14T16:45:24.122Z,22.40
2023-05-14T16:47:51.196Z,22.40
2023-05-14T16:50:18.155Z,22.30
2023-05-14T16:52:44.947Z,22.30
2023-05-14T16:55:11.636Z,22.30
2023-05-14T16:57:38.406Z,22.20
2023-05-14T17:00:06.323Z,22.20
2023-05-14T17:02:33.761Z,22.10
2023-05-14T17:05:00.662Z,22.10
2023-05-14T17:07:27.520Z,22.00
2023-05-14T17:09:54.666Z,22.00
2023-05-14T17:12:21.452Z,21.90
2023-05-14T17:14:48.131Z,21.90
2023-05-14T17:17:14.982Z,21.80
2023-05-14T17:19:42.488Z,21.80
2023-05-14T17:22:09.363Z,21.70
2023-05-14T17:24:36.760Z,21.70
2023-05-14T17:27:03.872Z,21.60
2023-05-14T17:29:30.827Z,21.10
2023-05-14T17:31:58.045Z,21.20
2023-05-14T17:34:25.029Z,21.30
2023-05-14T17:36:51.884Z,21.30
2023-05-14T17:39:18.535Z,21.30
2023-05-14T17:41:45.268Z,21.20
2023-05-14T17:44:13.171Z,21.20
2023-05-14T17:46:41.930Z,21.10
2023-05-14T17:49:08.756Z,21.10
2023-05-14T17:51:35.556Z,21.00
2023-05-14T17:54:02.213Z,21.00
2023-05-14T17:56:29.035Z,20.90
2023-05-14T17:58:55.805Z,20.90
2023-05-14T18:01:22.789Z,20.80
2023-05-14T18:03:49.697Z,20.80
2023-05-14T18:06:19.572Z,20.70
2023-05-14T18:08:46.269Z,20.70
2023-05-14T18:11:13.384Z,20.60
2023-05-14T18:13:40.028Z,20.50
2023-05-14T18:16:06.832Z,20.50
2023-05-14T18:18:33.690Z,20.30
2023-05-14T18:21:00.633Z,20.30
2023-05-14T18:23:27.292Z,20.30
2023-05-14T18:25:54.175Z,20.30
2023-05-14T18:28:21.571Z,20.20
2023-05-14T18:30:49.382Z,20.20
2023-05-14T18:33:16.168Z,20.10
2023-05-14T18:35:43.966Z,19.80
2023-05-14T18:38:11.953Z,19.90
2023-05-14T18:40:38.813Z,19.90
2023-05-14T18:43:05.567Z,19.90
2023-05-14T18:45:32.611Z,19.90
2023-05-14T18:47:59.703Z,19.80
2023-05-14T18:50:26.535Z,19.70
2023-05-14T18:52:55.080Z,19.70
2023-05-14T18:55:21.866Z,19.70
2023-05-14T18:57:48.885Z,19.60
2023-05-14T19:00:16.144Z,19.60
2023-05-14T19:02:42.944Z,19.50
2023-05-14T19:05:09.963Z,19.50
2023-05-14T19:07:37.839Z,19.50
2023-05-14T19:10:05.640Z,19.40
2023-05-14T19:12:32.371Z,19.40
2023-05-14T19:14:59.284Z,19.30
2023-05-14T19:17:26.203Z,19.30
2023-05-14T19:19:52.889Z,19.20
2023-05-14T19:22:19.862Z,19.20
2023-05-14T19:24:46.813Z,19.10
2023-05-14T19:27:16.282Z,19.10
2023-05-14T19:29:44.172Z,19.00
2023-05-14T19:32:10.982Z,18.90
2023-05-14T19:34:37.736Z,18.90
2023-05-14T19:37:04.880Z,18.90
2023-05-14T19:39:31.608Z,18.80
2023-05-14T19:41:58.292Z,18.70
2023-05-14T19:44:24.977Z,18.70
2023-05-14T19:46:51.967Z,18.60
2023-05-14T19:49:19.246Z,18.60
2023-05-14T19:51:46.068Z,18.50
2023-05-14T19:54:12.985Z,18.50
2023-05-14T19:56:40.166Z,18.40
2023-05-14T19:59:06.998Z,18.40
2023-05-14T20:01:34.961Z,18.30
2023-05-14T20:04:02.622Z,18.30
2023-05-14T20:06:29.531Z,18.20
2023-05-14T20:08:56.332Z,18.20
2023-05-14T20:11:22.967Z,18.10
2023-05-14T20:13:49.685Z,18.10
2023-05-14T20:16:16.971Z,18.00
2023-05-14T20:18:44.308Z,18.00
2023-05-14T20:21:11.189Z,17.90
2023-05-14T20:23:38.023Z,17.90
2023-05-14T20:26:04.808Z,17.80
2023-05-14T20:28:31.541Z,17.80
2023-05-14T20:31:03.161Z,17.70
2023-05-14T20:33:30.893Z,17.70
2023-05-14T20:35:57.966Z,17.70
2023-05-14T20:38:25.783Z,17.60
2023-05-14T20:40:52.872Z,17.60
2023-05-14T20:43:19.526Z,17.50
2023-05-14T20:45:46.165Z,17.50
2023-05-14T20:48:16.544Z,17.50
2023-05-14T20:50:43.547Z,17.40
2023-05-14T20:53:10.289Z,17.40
2023-05-14T20:55:37.037Z,17.30
2023-05-14T20:58:03.797Z,17.30
2023-05-14T21:00:30.579Z,17.20
2023-05-14T21:02:57.620Z,17.20
2023-05-14T21:05:24.507Z,17.20
2023-05-14T21:07:51.441Z,17.10
2023-05-14T21:10:18.312Z,17.10
2023-05-14T21:12:45.156Z,17.00
2023-05-14T21:15:12.086Z,17.00
2023-05-14T21:17:38.846Z,17.00
2023-05-14T21:20:06.332Z,16.90
2023-05-14T21:22:33.088Z,16.90
2023-05-14T21:24:59.765Z,16.90
2023-05-14T21:27:26.710Z,16.80
2023-05-14T21:29:53.390Z,16.80
2023-05-14T21:32:22.300Z,16.70
2023-05-14T21:34:49.271Z,16.70
2023-05-14T21:37:16.025Z,16.70
2023-05-14T21:39:42.717Z,16.60
2023-05-14T21:42:09.875Z,16.60
2023-05-14T21:44:36.784Z,16.60
2023-05-14T21:47:04.402Z,16.50
2023-05-14T21:49:31.090Z,16.50
2023-05-14T21:51:57.994Z,16.50
2023-05-14T21:54:24.631Z,16.40
2023-05-14T21:56:51.434Z,16.40
2023-05-14T21:59:18.333Z,16.30
2023-05-14T22:02:05.687Z,16.30
2023-05-14T22:04:31.739Z,16.30
2023-05-14T22:06:58.565Z,16.20
2023-05-14T22:09:26.116Z,16.20
2023-05-14T22:11:52.875Z,16.20
2023-05-14T22:14:19.780Z,16.10
2023-05-14T22:16:46.573Z,16.10
2023-05-14T22:19:15.976Z,16.10
2023-05-14T22:21:42.715Z,16.00
2023-05-14T22:24:09.430Z,16.00
2023-05-14T22:26:36.160Z,16.00
2023-05-14T22:29:02.851Z,15.90
2023-05-14T22:31:30.115Z,15.90
2023-05-14T22:33:56.886Z,15.90
2023-05-14T22:36:23.603Z,15.80
2023-05-14T22:38:50.586Z,15.80
2023-05-14T22:41:17.674Z,15.80
2023-05-14T22:43:44.420Z,15.80
2023-05-14T22:46:11.390Z,15.70
2023-05-14T22:48:38.241Z,15.70
2023-05-14T22:51:05.168Z,15.70
2023-05-14T22:53:31.805Z,15.60
2023-05-14T22:55:58.715Z,15.60
2023-05-14T22:58:25.891Z,15.60
2023-05-14T23:00:52.702Z,15.50
2023-05-14T23:03:19.487Z,15.50
2023-05-14T23:05:46.528Z,15.50
2023-05-14T23:08:13.344Z,15.40
2023-05-14T23:10:39.989Z,15.40
2023-05-14T23:13:06.816Z,15.40
2023-05-14T23:15:33.729Z,15.40
2023-05-14T23:18:00.691Z,15.30
2023-05-14T23:20:27.650Z,15.30
2023-05-14T23:22:54.648Z,15.30
2023-05-14T23:25:21.380Z,15.30
2023-05-14T23:27:48.365Z,15.20
2023-05-14T23:30:15.318Z,15.20
2023-05-14T23:32:42.073Z,15.20
2023-05-14T23:35:08.921Z,15.20
2023-05-14T23:37:41.876Z,15.20
2023-05-14T23:40:10.166Z,15.20
2023-05-14T23:42:36.855Z,15.10
2023-05-14T23:45:04.171Z,15.10
2023-05-14T23:47:31.041Z,15.10
2023-05-14T23:49:57.861Z,15.10
2023-05-14T23:52:24.600Z,15.10
2023-05-14T23:54:51.536Z,15.00
2023-05-14T23:57:18.280Z,15.00
2023-05-14T23:59:45.157Z,15.00
